sensor_id;sensor_type;location;lat;lon;timestamp;P1;durP1;ratioP1;P2;durP2;ratioP2
30327;SDS011;17133;52.418;13.398;2022-09-09T00:07:21;9.47;;;8.47;;
30327;SDS011;17133;52.418;13.398;2022-09-09T00:10:03;9.48;;;8.45;;
30327;SDS011;17133;52.418;13.398;2022-09-09T00:12:44;9.52;;;8.50;;
30327;SDS011;17133;52.418;13.398;2022-09-09T00:15:25;8.85;;;7.78;;
30327;SDS011;17133;52.418;13.398;2022-09-09T00:20:52;7.97;;;6.78;;
30327;SDS011;17133;52.418;13.398;2022-09-09T00:23:37;8.60;;;7.40;;
30327;SDS011;17133;52.418;13.398;2022-09-09T00:26:08;10.95;;;8.68;;
30327;SDS011;17133;52.418;13.398;2022-09-09T00:31:20;7.45;;;6.72;;
30327;SDS011;17133;52.418;13.398;2022-09-09T00:33:52;11.48;;;7.57;;
30327;SDS011;17133;52.418;13.398;2022-09-09T00:36:20;9.02;;;7.03;;
30327;SDS011;17133;52.418;13.398;2022-09-09T00:38:49;7.47;;;6.65;;
30327;SDS011;17133;52.418;13.398;2022-09-09T00:41:28;9.38;;;7.75;;
30327;SDS011;17133;52.418;13.398;2022-09-09T00:52:50;9.65;;;8.60;;
30327;SDS011;17133;52.418;13.398;2022-09-09T00:55:36;8.32;;;6.53;;
30327;SDS011;17133;52.418;13.398;2022-09-09T00:58:13;8.50;;;7.70;;
30327;SDS011;17133;52.418;13.398;2022-09-09T01:09:02;8.73;;;6.70;;
30327;SDS011;17133;52.418;13.398;2022-09-09T01:17:46;8.02;;;7.22;;
30327;SDS011;17133;52.418;13.398;2022-09-09T01:28:39;7.82;;;6.15;;
30327;SDS011;17133;52.418;13.398;2022-09-09T01:31:06;8.45;;;7.28;;
30327;SDS011;17133;52.418;13.398;2022-09-09T01:38:30;6.67;;;5.97;;
30327;SDS011;17133;52.418;13.398;2022-09-09T01:40:57;7.63;;;6.70;;
30327;SDS011;17133;52.418;13.398;2022-09-09T01:43:23;9.20;;;7.55;;
30327;SDS011;17133;52.418;13.398;2022-09-09T01:45:51;8.38;;;7.25;;
30327;SDS011;17133;52.418;13.398;2022-09-09T01:48:19;6.88;;;6.18;;
30327;SDS011;17133;52.418;13.398;2022-09-09T01:50:47;7.80;;;6.30;;
30327;SDS011;17133;52.418;13.398;2022-09-09T01:53:13;9.18;;;8.10;;
30327;SDS011;17133;52.418;13.398;2022-09-09T01:55:42;8.77;;;7.70;;
30327;SDS011;17133;52.418;13.398;2022-09-09T01:58:34;9.55;;;7.85;;
30327;SDS011;17133;52.418;13.398;2022-09-09T02:04:05;9.10;;;7.57;;
30327;SDS011;17133;52.418;13.398;2022-09-09T02:06:42;7.80;;;5.82;;
30327;SDS011;17133;52.418;13.398;2022-09-09T02:09:12;7.72;;;6.93;;
30327;SDS011;17133;52.418;13.398;2022-09-09T02:11:40;7.78;;;6.80;;
30327;SDS011;17133;52.418;13.398;2022-09-09T02:14:10;8.68;;;6.78;;
30327;SDS011;17133;52.418;13.398;2022-09-09T02:19:14;9.45;;;7.47;;
30327;SDS011;17133;52.418;13.398;2022-09-09T02:21:50;9.52;;;8.52;;
30327;SDS011;17133;52.418;13.398;2022-09-09T02:24:18;8.57;;;7.35;;
30327;SDS011;17133;52.418;13.398;2022-09-09T02:26:44;10.00;;;8.02;;
30327;SDS011;17133;52.418;13.398;2022-09-09T02:29:19;10.15;;;8.55;;
30327;SDS011;17133;52.418;13.398;2022-09-09T02:31:55;9.50;;;7.97;;
30327;SDS011;17133;52.418;13.398;2022-09-09T02:34:27;9.30;;;7.65;;
30327;SDS011;17133;52.418;13.398;2022-09-09T02:36:53;8.90;;;7.82;;
30327;SDS011;17133;52.418;13.398;2022-09-09T02:39:22;14.13;;;9.13;;
30327;SDS011;17133;52.418;13.398;2022-09-09T02:41:47;10.88;;;8.98;;
30327;SDS011;17133;52.418;13.398;2022-09-09T02:44:14;9.10;;;7.72;;
30327;SDS011;17133;52.418;13.398;2022-09-09T02:52:14;8.73;;;7.80;;
30327;SDS011;17133;52.418;13.398;2022-09-09T02:54:43;9.50;;;8.48;;
30327;SDS011;17133;52.418;13.398;2022-09-09T02:57:17;9.98;;;7.72;;
30327;SDS011;17133;52.418;13.398;2022-09-09T02:59:50;8.43;;;6.72;;
30327;SDS011;17133;52.418;13.398;2022-09-09T03:02:17;9.18;;;7.78;;
30327;SDS011;17133;52.418;13.398;2022-09-09T03:04:43;10.00;;;7.85;;
30327;SDS011;17133;52.418;13.398;2022-09-09T03:07:09;10.27;;;7.55;;
30327;SDS011;17133;52.418;13.398;2022-09-09T03:09:36;8.48;;;7.57;;
30327;SDS011;17133;52.418;13.398;2022-09-09T03:12:02;10.43;;;7.22;;
30327;SDS011;17133;52.418;13.398;2022-09-09T03:14:29;8.63;;;6.78;;
30327;SDS011;17133;52.418;13.398;2022-09-09T03:16:55;11.45;;;8.50;;
30327;SDS011;17133;52.418;13.398;2022-09-09T03:19:22;9.75;;;7.90;;
30327;SDS011;17133;52.418;13.398;2022-09-09T03:21:48;13.07;;;8.27;;
30327;SDS011;17133;52.418;13.398;2022-09-09T03:24:14;10.90;;;8.23;;
30327;SDS011;17133;52.418;13.398;2022-09-09T03:26:40;7.50;;;6.70;;
30327;SDS011;17133;52.418;13.398;2022-09-09T03:29:09;10.63;;;7.90;;
30327;SDS011;17133;52.418;13.398;2022-09-09T03:31:37;7.35;;;6.60;;
30327;SDS011;17133;52.418;13.398;2022-09-09T03:34:03;9.82;;;8.30;;
30327;SDS011;17133;52.418;13.398;2022-09-09T03:36:29;8.05;;;7.07;;
30327;SDS011;17133;52.418;13.398;2022-09-09T03:38:55;7.95;;;6.78;;
30327;SDS011;17133;52.418;13.398;2022-09-09T03:41:21;9.23;;;7.28;;
30327;SDS011;17133;52.418;13.398;2022-09-09T03:43:52;9.32;;;6.63;;
30327;SDS011;17133;52.418;13.398;2022-09-09T03:46:18;10.00;;;7.93;;
30327;SDS011;17133;52.418;13.398;2022-09-09T03:48:46;8.02;;;6.85;;
30327;SDS011;17133;52.418;13.398;2022-09-09T03:51:11;7.68;;;6.88;;
30327;SDS011;17133;52.418;13.398;2022-09-09T03:53:37;7.88;;;6.85;;
30327;SDS011;17133;52.418;13.398;2022-09-09T03:56:04;7.45;;;6.40;;
30327;SDS011;17133;52.418;13.398;2022-09-09T03:58:31;8.77;;;6.38;;
30327;SDS011;17133;52.418;13.398;2022-09-09T04:01:08;7.53;;;5.90;;
30327;SDS011;17133;52.418;13.398;2022-09-09T04:03:35;8.32;;;6.35;;
30327;SDS011;17133;52.418;13.398;2022-09-09T04:06:01;6.93;;;5.97;;
30327;SDS011;17133;52.418;13.398;2022-09-09T04:08:28;7.28;;;6.53;;
30327;SDS011;17133;52.418;13.398;2022-09-09T04:13:23;9.18;;;6.70;;
30327;SDS011;17133;52.418;13.398;2022-09-09T04:15:53;8.20;;;6.13;;
30327;SDS011;17133;52.418;13.398;2022-09-09T04:18:20;7.65;;;6.43;;
30327;SDS011;17133;52.418;13.398;2022-09-09T04:20:50;8.85;;;6.88;;
30327;SDS011;17133;52.418;13.398;2022-09-09T04:23:20;7.10;;;6.13;;
30327;SDS011;17133;52.418;13.398;2022-09-09T04:25:46;10.80;;;7.10;;
30327;SDS011;17133;52.418;13.398;2022-09-09T04:28:16;8.18;;;6.53;;
30327;SDS011;17133;52.418;13.398;2022-09-09T04:30:44;6.82;;;6.13;;
30327;SDS011;17133;52.418;13.398;2022-09-09T04:33:10;8.57;;;6.70;;
30327;SDS011;17133;52.418;13.398;2022-09-09T04:35:37;9.82;;;6.70;;
30327;SDS011;17133;52.418;13.398;2022-09-09T04:38:03;7.75;;;6.57;;
30327;SDS011;17133;52.418;13.398;2022-09-09T04:40:30;8.80;;;6.85;;
30327;SDS011;17133;52.418;13.398;2022-09-09T04:43:00;7.85;;;6.78;;
30327;SDS011;17133;52.418;13.398;2022-09-09T04:45:27;8.88;;;6.45;;
30327;SDS011;17133;52.418;13.398;2022-09-09T04:47:53;9.43;;;6.47;;
30327;SDS011;17133;52.418;13.398;2022-09-09T04:50:19;9.73;;;7.57;;
30327;SDS011;17133;52.418;13.398;2022-09-09T04:52:45;9.63;;;6.63;;
30327;SDS011;17133;52.418;13.398;2022-09-09T04:55:10;8.82;;;6.68;;
30327;SDS011;17133;52.418;13.398;2022-09-09T04:57:37;6.97;;;6.28;;
30327;SDS011;17133;52.418;13.398;2022-09-09T05:00:04;7.90;;;6.22;;
30327;SDS011;17133;52.418;13.398;2022-09-09T05:02:30;6.78;;;5.78;;
30327;SDS011;17133;52.418;13.398;2022-09-09T05:04:57;7.63;;;5.90;;
30327;SDS011;17133;52.418;13.398;2022-09-09T05:07:23;7.57;;;6.82;;
30327;SDS011;17133;52.418;13.398;2022-09-09T05:09:49;6.25;;;5.20;;
30327;SDS011;17133;52.418;13.398;2022-09-09T05:12:15;9.38;;;6.57;;
30327;SDS011;17133;52.418;13.398;2022-09-09T05:14:41;7.00;;;5.90;;
30327;SDS011;17133;52.418;13.398;2022-09-09T05:17:07;7.78;;;6.00;;
30327;SDS011;17133;52.418;13.398;2022-09-09T05:19:33;6.65;;;5.55;;
30327;SDS011;17133;52.418;13.398;2022-09-09T05:21:59;8.45;;;5.85;;
30327;SDS011;17133;52.418;13.398;2022-09-09T05:24:26;6.53;;;5.35;;
30327;SDS011;17133;52.418;13.398;2022-09-09T05:26:51;9.75;;;6.72;;
30327;SDS011;17133;52.418;13.398;2022-09-09T05:29:17;8.85;;;5.85;;
30327;SDS011;17133;52.418;13.398;2022-09-09T05:31:45;9.52;;;6.03;;
30327;SDS011;17133;52.418;13.398;2022-09-09T05:34:12;9.68;;;5.88;;
30327;SDS011;17133;52.418;13.398;2022-09-09T05:36:37;10.20;;;6.55;;
30327;SDS011;17133;52.418;13.398;2022-09-09T05:39:03;11.60;;;6.55;;
30327;SDS011;17133;52.418;13.398;2022-09-09T05:41:29;9.02;;;6.10;;
30327;SDS011;17133;52.418;13.398;2022-09-09T05:43:55;8.82;;;5.35;;
30327;SDS011;17133;52.418;13.398;2022-09-09T05:46:22;6.93;;;5.72;;
30327;SDS011;17133;52.418;13.398;2022-09-09T05:48:49;8.63;;;5.15;;
30327;SDS011;17133;52.418;13.398;2022-09-09T05:51:20;9.70;;;6.07;;
30327;SDS011;17133;52.418;13.398;2022-09-09T05:53:49;7.88;;;6.15;;
30327;SDS011;17133;52.418;13.398;2022-09-09T05:56:20;9.00;;;5.47;;
30327;SDS011;17133;52.418;13.398;2022-09-09T05:58:50;8.13;;;5.18;;
30327;SDS011;17133;52.418;13.398;2022-09-09T06:01:26;8.82;;;5.35;;
30327;SDS011;17133;52.418;13.398;2022-09-09T06:06:23;6.90;;;5.85;;
30327;SDS011;17133;52.418;13.398;2022-09-09T06:08:51;9.15;;;6.25;;
30327;SDS011;17133;52.418;13.398;2022-09-09T06:11:19;7.57;;;6.18;;
30327;SDS011;17133;52.418;13.398;2022-09-09T06:13:46;9.85;;;6.53;;
30327;SDS011;17133;52.418;13.398;2022-09-09T06:16:15;8.75;;;6.35;;
30327;SDS011;17133;52.418;13.398;2022-09-09T06:18:42;11.05;;;6.05;;
30327;SDS011;17133;52.418;13.398;2022-09-09T06:21:09;10.98;;;6.43;;
30327;SDS011;17133;52.418;13.398;2022-09-09T06:23:40;9.27;;;6.38;;
30327;SDS011;17133;52.418;13.398;2022-09-09T06:26:09;8.50;;;5.80;;
30327;SDS011;17133;52.418;13.398;2022-09-09T06:28:37;10.07;;;6.10;;
30327;SDS011;17133;52.418;13.398;2022-09-09T06:31:06;11.65;;;5.43;;
30327;SDS011;17133;52.418;13.398;2022-09-09T06:33:34;7.80;;;4.80;;
30327;SDS011;17133;52.418;13.398;2022-09-09T06:36:06;7.22;;;4.75;;
30327;SDS011;17133;52.418;13.398;2022-09-09T06:38:36;5.65;;;4.47;;
30327;SDS011;17133;52.418;13.398;2022-09-09T06:41:02;6.30;;;4.15;;
30327;SDS011;17133;52.418;13.398;2022-09-09T06:43:28;6.90;;;4.65;;
30327;SDS011;17133;52.418;13.398;2022-09-09T06:48:33;9.02;;;4.93;;
30327;SDS011;17133;52.418;13.398;2022-09-09T06:51:09;10.30;;;4.95;;
30327;SDS011;17133;52.418;13.398;2022-09-09T06:58:39;5.82;;;3.42;;
30327;SDS011;17133;52.418;13.398;2022-09-09T07:01:09;10.57;;;4.03;;
30327;SDS011;17133;52.418;13.398;2022-09-09T07:03:40;6.00;;;3.42;;
30327;SDS011;17133;52.418;13.398;2022-09-09T07:06:08;6.47;;;4.07;;
30327;SDS011;17133;52.418;13.398;2022-09-09T07:08:38;4.90;;;3.13;;
30327;SDS011;17133;52.418;13.398;2022-09-09T07:11:04;7.95;;;3.42;;
30327;SDS011;17133;52.418;13.398;2022-09-09T07:13:31;10.32;;;3.28;;
30327;SDS011;17133;52.418;13.398;2022-09-09T07:16:07;4.13;;;3.13;;
30327;SDS011;17133;52.418;13.398;2022-09-09T07:18:34;5.93;;;3.22;;
30327;SDS011;17133;52.418;13.398;2022-09-09T07:21:01;8.00;;;3.30;;
30327;SDS011;17133;52.418;13.398;2022-09-09T07:23:28;5.25;;;2.90;;
30327;SDS011;17133;52.418;13.398;2022-09-09T07:25:54;12.25;;;2.72;;
30327;SDS011;17133;52.418;13.398;2022-09-09T07:28:21;6.40;;;2.78;;
30327;SDS011;17133;52.418;13.398;2022-09-09T07:30:57;5.78;;;2.75;;
30327;SDS011;17133;52.418;13.398;2022-09-09T07:33:26;6.72;;;2.90;;
30327;SDS011;17133;52.418;13.398;2022-09-09T07:35:53;4.30;;;2.38;;
30327;SDS011;17133;52.418;13.398;2022-09-09T07:38:19;6.57;;;3.05;;
30327;SDS011;17133;52.418;13.398;2022-09-09T07:40:46;4.78;;;2.65;;
30327;SDS011;17133;52.418;13.398;2022-09-09T07:43:12;3.13;;;2.05;;
30327;SDS011;17133;52.418;13.398;2022-09-09T07:45:37;5.60;;;2.03;;
30327;SDS011;17133;52.418;13.398;2022-09-09T07:48:05;5.65;;;2.40;;
30327;SDS011;17133;52.418;13.398;2022-09-09T07:50:31;6.75;;;2.53;;
30327;SDS011;17133;52.418;13.398;2022-09-09T07:52:57;5.13;;;2.45;;
30327;SDS011;17133;52.418;13.398;2022-09-09T07:55:24;8.90;;;2.63;;
30327;SDS011;17133;52.418;13.398;2022-09-09T07:57:52;7.75;;;2.78;;
30327;SDS011;17133;52.418;13.398;2022-09-09T08:00:18;6.22;;;2.40;;
30327;SDS011;17133;52.418;13.398;2022-09-09T08:02:44;4.93;;;2.40;;
30327;SDS011;17133;52.418;13.398;2022-09-09T08:05:11;5.25;;;2.40;;
30327;SDS011;17133;52.418;13.398;2022-09-09T08:07:37;8.23;;;2.95;;
30327;SDS011;17133;52.418;13.398;2022-09-09T08:10:03;12.88;;;2.60;;
30327;SDS011;17133;52.418;13.398;2022-09-09T08:12:29;2.88;;;1.73;;
30327;SDS011;17133;52.418;13.398;2022-09-09T08:14:55;3.25;;;1.73;;
30327;SDS011;17133;52.418;13.398;2022-09-09T08:17:20;8.00;;;2.40;;
30327;SDS011;17133;52.418;13.398;2022-09-09T08:19:46;6.47;;;1.98;;
30327;SDS011;17133;52.418;13.398;2022-09-09T08:22:11;4.28;;;1.90;;
30327;SDS011;17133;52.418;13.398;2022-09-09T08:24:37;5.68;;;1.70;;
30327;SDS011;17133;52.418;13.398;2022-09-09T08:27:03;5.28;;;2.20;;
30327;SDS011;17133;52.418;13.398;2022-09-09T08:29:28;9.18;;;2.40;;
30327;SDS011;17133;52.418;13.398;2022-09-09T08:31:55;11.00;;;2.70;;
30327;SDS011;17133;52.418;13.398;2022-09-09T08:34:22;5.05;;;2.10;;
30327;SDS011;17133;52.418;13.398;2022-09-09T08:36:49;5.65;;;2.58;;
30327;SDS011;17133;52.418;13.398;2022-09-09T08:39:16;3.70;;;2.20;;
30327;SDS011;17133;52.418;13.398;2022-09-09T08:52:37;3.97;;;2.10;;
30327;SDS011;17133;52.418;13.398;2022-09-09T08:55:24;7.47;;;2.35;;
30327;SDS011;17133;52.418;13.398;2022-09-09T08:57:52;5.68;;;2.10;;
30327;SDS011;17133;52.418;13.398;2022-09-09T09:00:19;6.43;;;2.87;;
30327;SDS011;17133;52.418;13.398;2022-09-09T09:02:53;4.72;;;2.20;;
30327;SDS011;17133;52.418;13.398;2022-09-09T09:10:54;5.45;;;2.00;;
30327;SDS011;17133;52.418;13.398;2022-09-09T09:18:48;3.85;;;1.60;;
30327;SDS011;17133;52.418;13.398;2022-09-09T09:21:17;4.70;;;2.20;;
30327;SDS011;17133;52.418;13.398;2022-09-09T09:23:59;6.55;;;2.25;;
30327;SDS011;17133;52.418;13.398;2022-09-09T09:26:30;3.35;;;1.90;;
30327;SDS011;17133;52.418;13.398;2022-09-09T09:29:00;4.03;;;2.40;;
30327;SDS011;17133;52.418;13.398;2022-09-09T09:31:34;4.50;;;2.10;;
30327;SDS011;17133;52.418;13.398;2022-09-09T09:34:00;4.93;;;2.15;;
30327;SDS011;17133;52.418;13.398;2022-09-09T09:36:34;3.65;;;2.13;;
30327;SDS011;17133;52.418;13.398;2022-09-09T09:39:04;4.22;;;2.30;;
30327;SDS011;17133;52.418;13.398;2022-09-09T09:44:04;5.60;;;1.63;;
30327;SDS011;17133;52.418;13.398;2022-09-09T09:46:30;5.10;;;2.05;;
30327;SDS011;17133;52.418;13.398;2022-09-09T09:51:23;2.53;;;1.77;;
30327;SDS011;17133;52.418;13.398;2022-09-09T09:53:50;5.15;;;1.90;;
30327;SDS011;17133;52.418;13.398;2022-09-09T09:56:25;6.70;;;2.10;;
30327;SDS011;17133;52.418;13.398;2022-09-09T09:58:53;5.10;;;1.90;;
30327;SDS011;17133;52.418;13.398;2022-09-09T10:01:24;4.47;;;2.17;;
30327;SDS011;17133;52.418;13.398;2022-09-09T10:03:52;4.28;;;1.75;;
30327;SDS011;17133;52.418;13.398;2022-09-09T10:06:32;9.18;;;2.20;;
30327;SDS011;17133;52.418;13.398;2022-09-09T10:08:59;4.50;;;2.00;;
30327;SDS011;17133;52.418;13.398;2022-09-09T10:11:33;3.83;;;2.10;;
30327;SDS011;17133;52.418;13.398;2022-09-09T10:19:29;4.90;;;1.73;;
30327;SDS011;17133;52.418;13.398;2022-09-09T10:22:04;5.15;;;1.70;;
30327;SDS011;17133;52.418;13.398;2022-09-09T10:27:36;4.50;;;1.63;;
30327;SDS011;17133;52.418;13.398;2022-09-09T10:30:18;3.60;;;1.58;;
30327;SDS011;17133;52.418;13.398;2022-09-09T10:46:25;5.10;;;1.83;;
30327;SDS011;17133;52.418;13.398;2022-09-09T10:57:33;4.47;;;1.58;;
30327;SDS011;17133;52.418;13.398;2022-09-09T11:00:14;3.97;;;1.35;;
30327;SDS011;17133;52.418;13.398;2022-09-09T11:02:41;4.55;;;1.58;;
30327;SDS011;17133;52.418;13.398;2022-09-09T11:12:44;5.07;;;1.55;;
30327;SDS011;17133;52.418;13.398;2022-09-09T11:17:59;2.75;;;1.25;;
30327;SDS011;17133;52.418;13.398;2022-09-09T11:20:27;4.55;;;1.52;;
30327;SDS011;17133;52.418;13.398;2022-09-09T11:23:04;3.80;;;1.10;;
30327;SDS011;17133;52.418;13.398;2022-09-09T11:25:32;3.00;;;1.00;;
30327;SDS011;17133;52.418;13.398;2022-09-09T11:33:14;3.83;;;0.95;;
30327;SDS011;17133;52.418;13.398;2022-09-09T11:35:56;5.85;;;1.40;;
30327;SDS011;17133;52.418;13.398;2022-09-09T11:38:28;4.50;;;1.30;;
30327;SDS011;17133;52.418;13.398;2022-09-09T11:40:56;3.65;;;1.10;;
30327;SDS011;17133;52.418;13.398;2022-09-09T11:43:26;3.00;;;1.00;;
30327;SDS011;17133;52.418;13.398;2022-09-09T11:45:53;3.17;;;0.88;;
30327;SDS011;17133;52.418;13.398;2022-09-09T11:53:30;3.22;;;0.98;;
30327;SDS011;17133;52.418;13.398;2022-09-09T11:56:22;3.97;;;1.25;;
30327;SDS011;17133;52.418;13.398;2022-09-09T11:59:04;2.78;;;1.10;;
30327;SDS011;17133;52.418;13.398;2022-09-09T12:04:04;2.70;;;1.13;;
30327;SDS011;17133;52.418;13.398;2022-09-09T12:06:32;5.15;;;1.15;;
30327;SDS011;17133;52.418;13.398;2022-09-09T12:09:06;2.55;;;0.93;;
30327;SDS011;17133;52.418;13.398;2022-09-09T12:11:33;4.50;;;1.75;;
30327;SDS011;17133;52.418;13.398;2022-09-09T12:13:59;2.10;;;0.93;;
30327;SDS011;17133;52.418;13.398;2022-09-09T12:16:35;2.33;;;0.90;;
30327;SDS011;17133;52.418;13.398;2022-09-09T12:19:24;2.47;;;0.82;;
30327;SDS011;17133;52.418;13.398;2022-09-09T12:21:52;8.10;;;1.20;;
30327;SDS011;17133;52.418;13.398;2022-09-09T12:24:21;2.72;;;0.90;;
30327;SDS011;17133;52.418;13.398;2022-09-09T12:26:52;3.08;;;1.30;;
30327;SDS011;17133;52.418;13.398;2022-09-09T12:32:09;2.47;;;1.02;;
30327;SDS011;17133;52.418;13.398;2022-09-09T12:39:38;3.42;;;0.90;;
30327;SDS011;17133;52.418;13.398;2022-09-09T12:42:15;3.25;;;0.95;;
30327;SDS011;17133;52.418;13.398;2022-09-09T12:44:50;2.10;;;0.75;;
30327;SDS011;17133;52.418;13.398;2022-09-09T12:47:16;1.33;;;0.75;;
30327;SDS011;17133;52.418;13.398;2022-09-09T12:49:44;3.97;;;1.40;;
30327;SDS011;17133;52.418;13.398;2022-09-09T12:52:15;4.38;;;0.90;;
30327;SDS011;17133;52.418;13.398;2022-09-09T12:54:43;2.17;;;1.10;;
30327;SDS011;17133;52.418;13.398;2022-09-09T12:57:11;3.40;;;1.15;;
30327;SDS011;17133;52.418;13.398;2022-09-09T12:59:39;4.43;;;1.50;;
30327;SDS011;17133;52.418;13.398;2022-09-09T13:02:11;3.30;;;1.17;;
30327;SDS011;17133;52.418;13.398;2022-09-09T13:04:42;2.85;;;0.80;;
30327;SDS011;17133;52.418;13.398;2022-09-09T13:07:09;2.92;;;1.60;;
30327;SDS011;17133;52.418;13.398;2022-09-09T13:09:36;2.60;;;1.00;;
30327;SDS011;17133;52.418;13.398;2022-09-09T13:12:02;2.58;;;1.33;;
30327;SDS011;17133;52.418;13.398;2022-09-09T13:14:33;4.75;;;1.05;;
30327;SDS011;17133;52.418;13.398;2022-09-09T13:17:02;3.55;;;1.20;;
30327;SDS011;17133;52.418;13.398;2022-09-09T13:19:33;3.50;;;1.13;;
30327;SDS011;17133;52.418;13.398;2022-09-09T13:22:11;5.65;;;1.55;;
30327;SDS011;17133;52.418;13.398;2022-09-09T13:24:38;4.35;;;1.33;;
30327;SDS011;17133;52.418;13.398;2022-09-09T13:27:05;3.97;;;1.20;;
30327;SDS011;17133;52.418;13.398;2022-09-09T13:29:51;2.78;;;1.17;;
30327;SDS011;17133;52.418;13.398;2022-09-09T13:32:19;3.67;;;1.00;;
30327;SDS011;17133;52.418;13.398;2022-09-09T13:34:59;3.95;;;1.10;;
30327;SDS011;17133;52.418;13.398;2022-09-09T13:37:31;2.92;;;1.10;;
30327;SDS011;17133;52.418;13.398;2022-09-09T13:39:58;2.38;;;0.93;;
30327;SDS011;17133;52.418;13.398;2022-09-09T13:42:25;3.95;;;1.38;;
30327;SDS011;17133;52.418;13.398;2022-09-09T13:44:52;4.30;;;1.30;;
30327;SDS011;17133;52.418;13.398;2022-09-09T13:47:19;2.38;;;0.93;;
30327;SDS011;17133;52.418;13.398;2022-09-09T13:49:45;4.88;;;1.42;;
30327;SDS011;17133;52.418;13.398;2022-09-09T13:52:12;4.35;;;0.90;;
30327;SDS011;17133;52.418;13.398;2022-09-09T13:54:39;2.38;;;1.10;;
30327;SDS011;17133;52.418;13.398;2022-09-09T13:57:05;4.05;;;1.45;;
30327;SDS011;17133;52.418;13.398;2022-09-09T13:59:31;5.97;;;2.05;;
30327;SDS011;17133;52.418;13.398;2022-09-09T14:01:57;5.22;;;1.35;;
30327;SDS011;17133;52.418;13.398;2022-09-09T14:04:24;2.45;;;1.00;;
30327;SDS011;17133;52.418;13.398;2022-09-09T14:06:50;2.83;;;1.00;;
30327;SDS011;17133;52.418;13.398;2022-09-09T14:09:16;5.22;;;1.30;;
30327;SDS011;17133;52.418;13.398;2022-09-09T14:11:43;2.83;;;1.20;;
30327;SDS011;17133;52.418;13.398;2022-09-09T14:14:10;4.95;;;1.67;;
30327;SDS011;17133;52.418;13.398;2022-09-09T14:16:36;3.63;;;1.42;;
30327;SDS011;17133;52.418;13.398;2022-09-09T14:19:03;5.82;;;1.17;;
30327;SDS011;17133;52.418;13.398;2022-09-09T14:21:29;3.63;;;1.60;;
30327;SDS011;17133;52.418;13.398;2022-09-09T14:23:55;3.60;;;1.33;;
30327;SDS011;17133;52.418;13.398;2022-09-09T14:26:23;2.85;;;1.42;;
30327;SDS011;17133;52.418;13.398;2022-09-09T14:28:49;4.82;;;1.20;;
30327;SDS011;17133;52.418;13.398;2022-09-09T14:31:16;4.18;;;1.15;;
30327;SDS011;17133;52.418;13.398;2022-09-09T14:33:42;5.43;;;1.65;;
30327;SDS011;17133;52.418;13.398;2022-09-09T14:36:09;4.57;;;1.30;;
30327;SDS011;17133;52.418;13.398;2022-09-09T14:38:36;5.05;;;1.70;;
30327;SDS011;17133;52.418;13.398;2022-09-09T14:41:06;5.97;;;1.67;;
30327;SDS011;17133;52.418;13.398;2022-09-09T14:43:35;4.45;;;1.60;;
30327;SDS011;17133;52.418;13.398;2022-09-09T14:46:08;2.85;;;1.10;;
30327;SDS011;17133;52.418;13.398;2022-09-09T14:48:35;5.20;;;1.50;;
30327;SDS011;17133;52.418;13.398;2022-09-09T14:51:08;4.07;;;1.40;;
30327;SDS011;17133;52.418;13.398;2022-09-09T14:53:35;4.05;;;1.48;;
30327;SDS011;17133;52.418;13.398;2022-09-09T14:56:07;3.33;;;1.10;;
30327;SDS011;17133;52.418;13.398;2022-09-09T14:58:38;2.72;;;0.90;;
30327;SDS011;17133;52.418;13.398;2022-09-09T15:01:08;3.13;;;1.10;;
30327;SDS011;17133;52.418;13.398;2022-09-09T15:03:39;3.42;;;1.30;;
30327;SDS011;17133;52.418;13.398;2022-09-09T15:08:34;2.22;;;0.90;;
30327;SDS011;17133;52.418;13.398;2022-09-09T15:11:03;3.30;;;1.15;;
30327;SDS011;17133;52.418;13.398;2022-09-09T15:13:30;4.63;;;1.50;;
30327;SDS011;17133;52.418;13.398;2022-09-09T15:15:55;4.53;;;1.70;;
30327;SDS011;17133;52.418;13.398;2022-09-09T15:18:27;5.28;;;1.48;;
30327;SDS011;17133;52.418;13.398;2022-09-09T15:20:54;3.63;;;1.00;;
30327;SDS011;17133;52.418;13.398;2022-09-09T15:23:19;2.25;;;0.80;;
30327;SDS011;17133;52.418;13.398;2022-09-09T15:25:54;3.05;;;0.90;;
30327;SDS011;17133;52.418;13.398;2022-09-09T15:28:21;1.98;;;0.70;;
30327;SDS011;17133;52.418;13.398;2022-09-09T15:30:48;1.65;;;0.70;;
30327;SDS011;17133;52.418;13.398;2022-09-09T15:33:14;2.17;;;1.00;;
30327;SDS011;17133;52.418;13.398;2022-09-09T15:35:40;3.13;;;1.17;;
30327;SDS011;17133;52.418;13.398;2022-09-09T15:38:06;3.63;;;1.40;;
30327;SDS011;17133;52.418;13.398;2022-09-09T15:40:32;5.68;;;1.58;;
30327;SDS011;17133;52.418;13.398;2022-09-09T15:42:58;2.40;;;1.00;;
30327;SDS011;17133;52.418;13.398;2022-09-09T15:45:23;3.38;;;1.33;;
30327;SDS011;17133;52.418;13.398;2022-09-09T15:47:49;3.90;;;0.98;;
30327;SDS011;17133;52.418;13.398;2022-09-09T15:50:15;4.95;;;1.38;;
30327;SDS011;17133;52.418;13.398;2022-09-09T15:52:41;2.38;;;1.00;;
30327;SDS011;17133;52.418;13.398;2022-09-09T15:55:07;2.20;;;1.10;;
30327;SDS011;17133;52.418;13.398;2022-09-09T15:57:33;3.38;;;0.98;;
30327;SDS011;17133;52.418;13.398;2022-09-09T16:00:01;2.78;;;1.00;;
30327;SDS011;17133;52.418;13.398;2022-09-09T16:02:28;3.55;;;1.20;;
30327;SDS011;17133;52.418;13.398;2022-09-09T16:04:55;2.45;;;1.00;;
30327;SDS011;17133;52.418;13.398;2022-09-09T16:07:22;4.30;;;1.55;;
30327;SDS011;17133;52.418;13.398;2022-09-09T16:09:48;3.35;;;1.05;;
30327;SDS011;17133;52.418;13.398;2022-09-09T16:12:16;2.33;;;1.20;;
30327;SDS011;17133;52.418;13.398;2022-09-09T16:14:42;2.17;;;1.20;;
30327;SDS011;17133;52.418;13.398;2022-09-09T16:17:08;5.60;;;1.52;;
30327;SDS011;17133;52.418;13.398;2022-09-09T16:19:33;3.40;;;1.10;;
30327;SDS011;17133;52.418;13.398;2022-09-09T16:21:59;2.67;;;1.50;;
30327;SDS011;17133;52.418;13.398;2022-09-09T16:24:25;3.38;;;1.50;;
30327;SDS011;17133;52.418;13.398;2022-09-09T16:26:52;2.65;;;1.10;;
30327;SDS011;17133;52.418;13.398;2022-09-09T16:29:19;3.47;;;1.73;;
30327;SDS011;17133;52.418;13.398;2022-09-09T16:31:47;3.25;;;1.48;;
30327;SDS011;17133;52.418;13.398;2022-09-09T16:34:15;3.55;;;1.52;;
30327;SDS011;17133;52.418;13.398;2022-09-09T16:36:42;2.63;;;1.15;;
30327;SDS011;17133;52.418;13.398;2022-09-09T16:39:12;4.97;;;1.48;;
30327;SDS011;17133;52.418;13.398;2022-09-09T16:41:39;2.15;;;1.00;;
30327;SDS011;17133;52.418;13.398;2022-09-09T16:44:07;3.70;;;1.88;;
30327;SDS011;17133;52.418;13.398;2022-09-09T16:46:34;5.15;;;1.73;;
30327;SDS011;17133;52.418;13.398;2022-09-09T16:49:02;4.47;;;1.55;;
30327;SDS011;17133;52.418;13.398;2022-09-09T16:51:30;6.15;;;1.65;;
30327;SDS011;17133;52.418;13.398;2022-09-09T16:54:01;4.07;;;1.55;;
30327;SDS011;17133;52.418;13.398;2022-09-09T16:56:30;3.90;;;1.13;;
30327;SDS011;17133;52.418;13.398;2022-09-09T16:59:02;2.67;;;1.27;;
30327;SDS011;17133;52.418;13.398;2022-09-09T17:01:31;4.77;;;1.70;;
30327;SDS011;17133;52.418;13.398;2022-09-09T17:04:01;4.35;;;1.90;;
30327;SDS011;17133;52.418;13.398;2022-09-09T17:06:30;3.88;;;1.58;;
30327;SDS011;17133;52.418;13.398;2022-09-09T17:09:00;4.93;;;1.95;;
30327;SDS011;17133;52.418;13.398;2022-09-09T17:11:26;4.88;;;1.70;;
30327;SDS011;17133;52.418;13.398;2022-09-09T17:13:53;3.78;;;1.45;;
30327;SDS011;17133;52.418;13.398;2022-09-09T17:16:21;5.35;;;1.60;;
30327;SDS011;17133;52.418;13.398;2022-09-09T17:18:51;3.65;;;1.50;;
30327;SDS011;17133;52.418;13.398;2022-09-09T17:21:21;2.45;;;1.25;;
30327;SDS011;17133;52.418;13.398;2022-09-09T17:23:48;4.68;;;1.30;;
30327;SDS011;17133;52.418;13.398;2022-09-09T17:26:15;2.17;;;1.17;;